Vibrant Curiosity — 2BQE2 — position and weather

sailwx.info

Track history (hours):
 
Tides and Currents Weather Stations Pressure Air Temp Water Temp Dewpoint Dewpoint Depression Visibility Wind Speed Wind Dir Waves Ship Positions

Vibrant Curiosity

Last reported at 2018-Apr-16 13:17 UTC. Time now 2018-Apr-19 23:19 UTC.
Position N 36°01' W 005°11'.

Length 85 m; draft 4 m.

Type: Pleasure craft. MMSI: 235068366.

Date/timePositionNaut miles runAvg speedWind from/ knotsBaromVisibWave heightAir tempDewpointWater temp
2018-Apr-16 13:17N 36°01' W 005°11'416.0
2018-Apr-16 13:00N 36°02' W 005°17'713.8
2018-Apr-16 12:30N 36°07' W 005°22'1 0.2
2018-Apr-16 06:38N 36°09' W 005°22'0 0.0
2018-Apr-16 06:30N 36°09' W 005°22'0 0.8
2018-Apr-16 06:00N 36°09' W 005°22'1 2.7
2018-Apr-16 05:30N 36°08' W 005°23'3 6.1
2018-Apr-16 05:00N 36°05' W 005°22'4 7.9
2018-Apr-16 04:30N 36°01' W 005°21'612.3
2018-Apr-16 04:00N 35°57' W 005°27'  
2018-Apr-09 19:54N 35°06' W 024°56'1311.8
2018-Apr-09 18:48N 35°10' W 025°11'512.5
2018-Apr-09 18:24N 35°12' W 025°17'712.1
2018-Apr-09 17:50N 35°15' W 025°24'1812.3
2018-Apr-09 16:22N 35°21' W 025°45'412.1
2018-Apr-09 16:00N 35°23' W 025°50'912.3
2018-Apr-09 15:16N 35°27' W 026°00'1812.2
2018-Apr-09 13:46N 35°33' W 026°21'712.1
2018-Apr-09 13:14N 35°36' W 026°28'311.9
2018-Apr-09 13:00N 35°37' W 026°31'612.0
2018-Apr-09 12:30N 35°39' W 026°38'612.2
2018-Apr-09 12:01N 35°41' W 026°45'612.0
2018-Apr-09 11:31N 35°43' W 026°52'1012.3
2018-Apr-09 10:42N 35°47' W 027°03'5111.6
2018-Apr-09 06:17N 35°57' W 028°06'2210.8
2018-Apr-09 04:17N 35°57' W 028°32'410.9
2018-Apr-09 03:56N 35°57' W 028°37'  
Track history (hours):
 
Tides and Currents Weather Stations Pressure Air Temp Water Temp Dewpoint Dewpoint Depression Visibility Wind Speed Wind Dir Waves Ship Positions

Vibrant Curiosity

Last reported at 2018-Apr-16 13:17 UTC. Time now 2018-Apr-19 23:19 UTC.
Position N 36°01' W 005°11'.

Length 85 m; draft 4 m.

Type: Pleasure craft. MMSI: 235068366.

Date/timePositionNaut miles runAvg speedWind from/ knotsBaromVisibWave heightAir tempDewpointWater temp
2018-Apr-16 13:17N 36°01' W 005°11'416.0
2018-Apr-16 13:00N 36°02' W 005°17'713.8
2018-Apr-16 12:30N 36°07' W 005°22'1 0.2
2018-Apr-16 06:38N 36°09' W 005°22'0 0.0
2018-Apr-16 06:30N 36°09' W 005°22'0 0.8
2018-Apr-16 06:00N 36°09' W 005°22'1 2.7
2018-Apr-16 05:30N 36°08' W 005°23'3 6.1
2018-Apr-16 05:00N 36°05' W 005°22'4 7.9
2018-Apr-16 04:30N 36°01' W 005°21'612.3
2018-Apr-16 04:00N 35°57' W 005°27'  
2018-Apr-09 19:54N 35°06' W 024°56'1311.8
2018-Apr-09 18:48N 35°10' W 025°11'512.5
2018-Apr-09 18:24N 35°12' W 025°17'712.1
2018-Apr-09 17:50N 35°15' W 025°24'1812.3
2018-Apr-09 16:22N 35°21' W 025°45'412.1
2018-Apr-09 16:00N 35°23' W 025°50'912.3
2018-Apr-09 15:16N 35°27' W 026°00'1812.2
2018-Apr-09 13:46N 35°33' W 026°21'712.1
2018-Apr-09 13:14N 35°36' W 026°28'311.9
2018-Apr-09 13:00N 35°37' W 026°31'612.0
2018-Apr-09 12:30N 35°39' W 026°38'612.2
2018-Apr-09 12:01N 35°41' W 026°45'612.0
2018-Apr-09 11:31N 35°43' W 026°52'1012.3
2018-Apr-09 10:42N 35°47' W 027°03'5111.6
2018-Apr-09 06:17N 35°57' W 028°06'2210.8
2018-Apr-09 04:17N 35°57' W 028°32'410.9
2018-Apr-09 03:56N 35°57' W 028°37'  

Dump ship's entire track history